createdAt,value
2023-07-18T00:01:49.577Z,7.26
2023-07-18T00:04:19.909Z,7.21
2023-07-18T00:06:51.186Z,7.12
2023-07-18T00:09:22.046Z,7.04
2023-07-18T00:11:52.858Z,6.98
2023-07-18T00:14:23.002Z,6.94
2023-07-18T00:16:53.918Z,6.85
2023-07-18T00:19:25.179Z,6.81
2023-07-18T00:21:56.838Z,6.87
2023-07-18T00:24:27.219Z,6.77
2023-07-18T00:27:00.029Z,6.76
2023-07-18T00:29:30.985Z,6.70
2023-07-18T00:32:03.059Z,6.66
2023-07-18T00:34:33.298Z,6.62
2023-07-18T00:37:05.170Z,6.52
2023-07-18T00:39:35.929Z,6.40
2023-07-18T00:42:06.904Z,6.37
2023-07-18T00:44:37.289Z,6.40
2023-07-18T00:47:11.070Z,6.36
2023-07-18T00:49:42.247Z,6.35
2023-07-18T00:52:13.458Z,6.28
2023-07-18T00:54:46.276Z,6.28
2023-07-18T00:57:18.090Z,6.25
2023-07-18T00:59:50.516Z,6.26
2023-07-18T01:02:20.769Z,6.21
2023-07-18T01:04:51.031Z,6.21
2023-07-18T01:07:23.854Z,6.22
2023-07-18T01:09:55.942Z,6.23
2023-07-18T01:12:26.823Z,6.16
2023-07-18T01:14:56.780Z,6.15
2023-07-18T01:17:28.684Z,6.16
2023-07-18T01:19:59.997Z,6.19
2023-07-18T01:22:30.790Z,6.15
2023-07-18T01:25:00.661Z,6.13
2023-07-18T01:27:32.601Z,6.18
2023-07-18T01:30:03.825Z,6.16
2023-07-18T01:32:36.356Z,6.18
2023-07-18T01:35:10.579Z,6.13
2023-07-18T01:37:42.183Z,6.11
2023-07-18T01:40:16.542Z,6.06
2023-07-18T01:42:46.863Z,6.06
2023-07-18T01:45:16.769Z,6.08
2023-07-18T01:47:48.243Z,6.06
2023-07-18T01:50:20.126Z,5.98
2023-07-18T01:52:51.042Z,5.97
2023-07-18T01:55:24.520Z,5.94
2023-07-18T01:57:55.467Z,5.87
2023-07-18T02:00:28.475Z,5.83
2023-07-18T02:02:59.032Z,5.84
2023-07-18T02:05:32.526Z,5.79
2023-07-18T02:08:03.081Z,5.74
2023-07-18T02:10:34.381Z,5.77
2023-07-18T02:13:05.596Z,5.77
2023-07-18T02:15:36.695Z,5.77
2023-07-18T02:18:08.253Z,5.73
2023-07-18T02:20:40.623Z,5.75
2023-07-18T02:23:12.595Z,5.75
2023-07-18T02:25:43.032Z,5.71
2023-07-18T02:28:14.830Z,5.70
2023-07-18T02:30:45.816Z,5.74
2023-07-18T02:33:17.789Z,5.73
2023-07-18T02:35:52.926Z,5.71
2023-07-18T02:38:23.008Z,5.67
2023-07-18T02:40:54.922Z,5.63
2023-07-18T02:43:26.731Z,5.55
2023-07-18T02:45:57.171Z,5.57
2023-07-18T02:48:27.104Z,5.58
2023-07-18T02:51:00.038Z,5.58
2023-07-18T02:53:30.753Z,5.58
2023-07-18T02:56:02.219Z,5.54
2023-07-18T02:58:32.526Z,5.54
2023-07-18T03:01:04.703Z,5.51
2023-07-18T03:03:36.820Z,5.54
2023-07-18T03:06:07.803Z,5.54
2023-07-18T03:08:38.746Z,5.63
2023-07-18T03:11:09.631Z,5.71
2023-07-18T03:13:39.975Z,5.84
2023-07-18T03:16:12.738Z,5.87
2023-07-18T03:18:44.326Z,5.95
2023-07-18T03:21:16.398Z,5.97
2023-07-18T03:23:47.548Z,5.99
2023-07-18T03:26:17.746Z,5.94
2023-07-18T03:28:48.668Z,5.85
2023-07-18T03:31:19.076Z,5.83
2023-07-18T03:33:50.430Z,5.74
2023-07-18T03:36:22.729Z,5.74
2023-07-18T03:38:53.608Z,5.67
2023-07-18T03:41:28.651Z,5.67
2023-07-18T03:43:59.992Z,5.64
2023-07-18T03:46:30.138Z,5.64
2023-07-18T03:49:00.189Z,5.70
2023-07-18T03:51:31.166Z,5.73
2023-07-18T03:54:05.436Z,5.79
2023-07-18T03:56:36.844Z,5.87
2023-07-18T03:59:06.681Z,5.87
2023-07-18T04:01:36.917Z,5.88
2023-07-18T04:04:07.854Z,5.91
2023-07-18T04:06:41.587Z,5.91
2023-07-18T04:09:12.542Z,5.90
2023-07-18T04:11:43.649Z,5.94
2023-07-18T04:14:15.307Z,5.85
2023-07-18T04:16:46.328Z,5.84
2023-07-18T04:19:17.162Z,5.78
2023-07-18T04:21:47.502Z,5.65
2023-07-18T04:24:16.913Z,5.64
2023-07-18T04:26:47.244Z,5.58
2023-07-18T04:29:17.870Z,5.51
2023-07-18T04:31:50.504Z,5.44
2023-07-18T04:34:21.584Z,5.39
2023-07-18T04:36:52.160Z,5.25
2023-07-18T04:39:23.152Z,5.13
2023-07-18T04:41:55.885Z,5.15
2023-07-18T04:44:26.453Z,5.11
2023-07-18T04:46:56.492Z,5.05
2023-07-18T04:49:27.467Z,4.97
2023-07-18T04:51:57.774Z,4.97
2023-07-18T04:54:28.548Z,5.02
2023-07-18T04:56:58.575Z,5.02
2023-07-18T04:59:31.267Z,4.97
2023-07-18T05:02:04.145Z,4.99
2023-07-18T05:04:34.912Z,4.93
2023-07-18T05:07:06.217Z,5.02
2023-07-18T05:09:36.800Z,5.09
2023-07-18T05:12:09.141Z,5.15
2023-07-18T05:14:39.412Z,5.06
2023-07-18T05:17:09.663Z,4.91
2023-07-18T05:19:40.480Z,4.82
2023-07-18T05:22:11.138Z,4.76
2023-07-18T05:24:41.576Z,4.76
2023-07-18T05:27:11.665Z,4.72
2023-07-18T05:29:43.416Z,4.75
2023-07-18T05:32:14.598Z,4.82
2023-07-18T05:34:44.516Z,4.88
2023-07-18T05:37:15.410Z,4.95
2023-07-18T05:39:45.691Z,4.99
2023-07-18T05:42:16.173Z,4.99
2023-07-18T05:44:46.672Z,4.99
2023-07-18T05:47:17.796Z,4.93
2023-07-18T05:49:48.091Z,4.89
2023-07-18T05:52:18.563Z,4.81
2023-07-18T05:54:52.384Z,4.74
2023-07-18T05:57:22.813Z,4.72
2023-07-18T05:59:52.753Z,4.65
2023-07-18T06:02:24.718Z,4.62
2023-07-18T06:04:56.104Z,4.61
2023-07-18T06:07:26.754Z,4.53
2023-07-18T06:09:56.595Z,4.48
2023-07-18T06:12:28.350Z,4.47
2023-07-18T06:14:59.024Z,4.44
2023-07-18T06:17:29.801Z,4.38
2023-07-18T06:20:00.073Z,4.34
2023-07-18T06:22:30.521Z,4.30
2023-07-18T06:25:01.480Z,4.30
2023-07-18T06:27:33.765Z,4.34
2023-07-18T06:30:06.818Z,4.27
2023-07-18T06:32:38.131Z,4.21
2023-07-18T06:35:23.197Z,4.09
2023-07-18T06:37:55.183Z,4.05
2023-07-18T06:40:25.225Z,4.05
2023-07-18T06:42:55.120Z,4.05
2023-07-18T06:45:26.780Z,4.02
2023-07-18T06:47:58.008Z,4.02
2023-07-18T06:50:28.332Z,4.00
2023-07-18T06:52:58.336Z,3.99
2023-07-18T06:55:28.617Z,3.99
2023-07-18T06:58:00.977Z,4.00
2023-07-18T07:00:32.074Z,3.99
2023-07-18T07:03:02.782Z,3.97
2023-07-18T07:05:32.744Z,4.03
2023-07-18T07:08:02.479Z,4.06
2023-07-18T07:10:32.905Z,4.03
2023-07-18T07:13:04.185Z,4.03
2023-07-18T07:15:37.983Z,4.00
2023-07-18T07:18:08.690Z,3.93
2023-07-18T07:20:38.678Z,3.92
2023-07-18T07:23:09.593Z,3.96
2023-07-18T07:25:41.628Z,3.92
2023-07-18T07:28:11.926Z,4.00
2023-07-18T07:30:41.800Z,4.06
2023-07-18T07:33:13.374Z,4.09
2023-07-18T07:35:45.769Z,4.07
2023-07-18T07:38:17.800Z,4.13
2023-07-18T07:40:48.185Z,4.11
2023-07-18T07:43:18.523Z,4.02
2023-07-18T07:45:49.933Z,3.99
2023-07-18T07:48:20.896Z,4.02
2023-07-18T07:50:54.272Z,4.03
2023-07-18T07:53:25.386Z,4.00
2023-07-18T07:55:56.057Z,4.05
2023-07-18T07:58:26.851Z,4.09
2023-07-18T08:00:58.044Z,4.23
2023-07-18T08:03:28.416Z,4.29
2023-07-18T08:05:58.465Z,4.37
2023-07-18T08:08:28.994Z,4.50
2023-07-18T08:10:59.721Z,4.62
2023-07-18T08:13:30.503Z,4.71
2023-07-18T08:16:00.795Z,4.75
2023-07-18T08:18:31.519Z,4.85
2023-07-18T08:21:03.180Z,4.91
2023-07-18T08:23:33.505Z,4.99
2023-07-18T08:26:02.894Z,5.08
2023-07-18T08:28:33.610Z,5.13
2023-07-18T08:31:06.829Z,5.19
2023-07-18T08:33:37.614Z,5.19
2023-07-18T08:36:07.647Z,5.20
2023-07-18T08:38:38.493Z,5.20
2023-07-18T08:41:10.936Z,5.23
2023-07-18T08:43:41.884Z,5.12
2023-07-18T08:46:12.456Z,4.97
2023-07-18T08:48:43.104Z,4.96
2023-07-18T08:51:14.883Z,4.84
2023-07-18T08:53:46.039Z,4.69
2023-07-18T08:56:17.105Z,4.67
2023-07-18T08:58:47.513Z,4.60
2023-07-18T09:01:19.490Z,4.50
2023-07-18T09:03:50.694Z,4.43
2023-07-18T09:06:25.557Z,4.36
2023-07-18T09:08:57.898Z,4.18
2023-07-18T09:11:28.528Z,4.05
2023-07-18T09:13:58.796Z,3.95
2023-07-18T09:16:30.377Z,3.85
2023-07-18T09:19:00.505Z,3.81
2023-07-18T09:21:31.187Z,3.72
2023-07-18T09:24:02.672Z,3.68
2023-07-18T09:26:33.127Z,3.62
2023-07-18T09:29:05.082Z,3.58
2023-07-18T09:31:36.016Z,3.59
2023-07-18T09:34:14.943Z,3.48
2023-07-18T09:37:05.522Z,3.45
2023-07-18T09:39:39.243Z,3.47
2023-07-18T09:42:12.375Z,3.52
2023-07-18T09:44:45.481Z,3.51
2023-07-18T09:47:16.622Z,3.55
2023-07-18T09:49:47.742Z,3.61
2023-07-18T09:52:21.422Z,3.61
2023-07-18T09:54:55.485Z,3.58
2023-07-18T09:57:26.224Z,3.52
2023-07-18T10:00:00.399Z,3.61
2023-07-18T10:02:30.920Z,3.75
2023-07-18T10:05:01.868Z,3.95
2023-07-18T10:07:37.936Z,4.13
2023-07-18T10:10:11.490Z,4.27
2023-07-18T10:13:02.780Z,4.41
2023-07-18T10:15:53.543Z,4.40
2023-07-18T10:18:26.494Z,4.43
2023-07-18T10:21:01.069Z,4.50
2023-07-18T10:23:44.904Z,4.48
2023-07-18T10:26:17.490Z,4.40
2023-07-18T10:28:49.844Z,4.37
2023-07-18T10:31:37.568Z,4.26
2023-07-18T10:34:20.532Z,4.23
2023-07-18T10:37:01.574Z,4.17
2023-07-18T10:39:49.468Z,4.13
2023-07-18T10:42:23.427Z,4.10
2023-07-18T10:45:06.939Z,4.07
2023-07-18T10:47:40.294Z,4.07
2023-07-18T10:50:11.817Z,4.06
2023-07-18T10:52:43.639Z,4.07
2023-07-18T10:55:15.398Z,4.16
2023-07-18T10:57:46.181Z,4.18
2023-07-18T11:00:17.894Z,4.32
2023-07-18T11:02:48.563Z,4.64
2023-07-18T11:05:18.745Z,5.23
2023-07-18T11:07:51.804Z,6.25
2023-07-18T11:10:23.357Z,6.58
2023-07-18T11:12:55.465Z,7.07
2023-07-18T11:15:26.079Z,7.45
2023-07-18T11:17:57.054Z,6.90
2023-07-18T11:20:27.801Z,7.81
2023-07-18T11:22:58.684Z,7.52
2023-07-18T11:25:29.645Z,7.25
2023-07-18T11:27:59.924Z,7.18
2023-07-18T11:30:30.877Z,7.43
2023-07-18T11:33:01.252Z,7.59
2023-07-18T11:35:32.034Z,7.41
2023-07-18T11:38:02.973Z,7.38
2023-07-18T11:40:35.740Z,7.45
2023-07-18T11:43:06.915Z,7.53
2023-07-18T11:45:37.263Z,7.56
2023-07-18T11:48:08.184Z,7.72
2023-07-18T11:50:40.053Z,7.46
2023-07-18T11:53:10.153Z,8.02
2023-07-18T11:55:40.161Z,8.46
2023-07-18T11:58:12.368Z,8.37
2023-07-18T12:00:42.844Z,8.14
2023-07-18T12:03:14.127Z,7.98
2023-07-18T12:05:44.592Z,8.11
2023-07-18T12:08:16.170Z,7.81
2023-07-18T12:10:53.023Z,7.69
2023-07-18T12:13:32.416Z,8.04
2023-07-18T12:16:02.801Z,8.12
2023-07-18T12:18:33.053Z,8.15
2023-07-18T12:21:03.555Z,8.00
2023-07-18T12:23:34.131Z,8.05
2023-07-18T12:26:08.223Z,8.12
2023-07-18T12:28:38.697Z,8.04
2023-07-18T12:31:10.339Z,8.45
2023-07-18T12:33:41.421Z,9.31
2023-07-18T12:36:12.727Z,9.04
2023-07-18T12:38:43.016Z,9.32
2023-07-18T12:41:12.909Z,9.41
2023-07-18T12:43:43.815Z,9.38
2023-07-18T12:46:13.936Z,9.67
2023-07-18T12:51:17.858Z,15.27
2023-07-18T12:53:48.558Z,16.48
2023-07-18T12:56:19.558Z,17.41
2023-07-18T12:58:50.526Z,17.61
2023-07-18T13:01:21.696Z,17.72
2023-07-18T13:03:52.299Z,17.28
2023-07-18T13:06:25.021Z,17.71
2023-07-18T13:08:55.497Z,14.48
2023-07-18T13:11:25.503Z,16.22
2023-07-18T13:13:56.763Z,16.73
2023-07-18T13:16:27.981Z,17.42
2023-07-18T13:18:58.975Z,14.98
2023-07-18T13:21:30.033Z,13.30
2023-07-18T13:24:01.677Z,12.46
2023-07-18T13:26:32.237Z,11.95
2023-07-18T13:29:03.225Z,11.53
2023-07-18T13:31:35.814Z,11.47
2023-07-18T13:34:08.597Z,11.50
2023-07-18T13:36:39.005Z,11.26
2023-07-18T13:39:09.238Z,11.23
2023-07-18T13:41:38.712Z,11.30
2023-07-18T13:44:09.470Z,11.49
2023-07-18T13:46:40.199Z,11.54
2023-07-18T13:49:11.633Z,11.44
2023-07-18T13:51:42.107Z,11.63
2023-07-18T13:54:12.614Z,11.70
2023-07-18T13:56:43.083Z,12.14
2023-07-18T13:59:14.633Z,12.13
2023-07-18T14:01:45.065Z,14.05
2023-07-18T14:04:15.879Z,14.96
2023-07-18T14:06:46.931Z,14.54
2023-07-18T14:09:17.309Z,12.97
2023-07-18T14:11:47.272Z,13.45
2023-07-18T14:14:18.207Z,14.84
2023-07-18T14:16:49.357Z,16.56
2023-07-18T14:19:19.759Z,17.02
2023-07-18T14:21:49.665Z,17.90
2023-07-18T14:24:19.709Z,16.45
2023-07-18T14:26:49.986Z,15.47
2023-07-18T14:29:23.078Z,13.87
2023-07-18T14:31:53.314Z,13.32
2023-07-18T14:34:23.332Z,13.25
2023-07-18T14:36:54.293Z,13.54
2023-07-18T14:39:25.391Z,14.96
2023-07-18T14:41:55.973Z,16.51
2023-07-18T14:44:26.345Z,17.02
2023-07-18T14:46:57.045Z,16.42
2023-07-18T14:49:28.685Z,15.56
2023-07-18T14:51:59.899Z,16.18
2023-07-18T14:54:30.434Z,15.60
2023-07-18T14:57:03.265Z,15.32
2023-07-18T14:59:34.408Z,14.50
2023-07-18T15:02:05.412Z,14.12
2023-07-18T15:04:37.144Z,13.58
2023-07-18T15:07:08.786Z,12.89
2023-07-18T15:09:39.329Z,12.62
2023-07-18T15:12:10.624Z,12.64
2023-07-18T15:14:41.315Z,12.87
2023-07-18T15:17:11.824Z,13.61
2023-07-18T15:19:43.849Z,14.78
2023-07-18T15:22:13.848Z,14.81
2023-07-18T15:24:44.504Z,14.24
2023-07-18T15:27:15.323Z,14.13
2023-07-18T15:29:48.414Z,13.72
2023-07-18T15:32:18.902Z,13.38
2023-07-18T15:34:49.573Z,13.15
2023-07-18T15:37:19.879Z,12.93
2023-07-18T15:39:51.057Z,12.75
2023-07-18T15:42:21.422Z,12.75
2023-07-18T15:44:51.445Z,12.73
2023-07-18T15:47:23.005Z,12.59
2023-07-18T15:49:53.535Z,13.31
2023-07-18T15:52:24.730Z,14.52
2023-07-18T15:54:55.244Z,14.99
2023-07-18T15:57:25.586Z,15.81
2023-07-18T15:59:56.877Z,15.63
2023-07-18T16:02:27.420Z,14.82
2023-07-18T16:04:57.618Z,14.50
2023-07-18T16:07:28.082Z,14.03
2023-07-18T16:10:00.548Z,13.63
2023-07-18T16:12:31.274Z,13.48
2023-07-18T16:15:01.693Z,13.30
2023-07-18T16:17:32.807Z,13.18
2023-07-18T16:20:04.249Z,13.35
2023-07-18T16:22:34.581Z,13.38
2023-07-18T16:25:10.049Z,13.51
2023-07-18T16:27:42.049Z,13.45
2023-07-18T16:30:13.205Z,13.62
2023-07-18T16:32:44.161Z,13.80
2023-07-18T16:35:15.129Z,13.86
2023-07-18T16:37:46.974Z,14.38
2023-07-18T16:40:19.993Z,14.79
2023-07-18T16:42:50.618Z,14.72
2023-07-18T16:45:20.793Z,15.32
2023-07-18T16:47:51.782Z,14.75
2023-07-18T16:50:22.971Z,14.65
2023-07-18T16:52:54.117Z,15.54
2023-07-18T16:55:24.371Z,17.75
2023-07-18T16:57:54.857Z,16.76
2023-07-18T17:00:26.456Z,17.69
2023-07-18T17:02:58.026Z,19.73
2023-07-18T17:05:28.432Z,20.05
2023-07-18T17:07:59.432Z,19.37
2023-07-18T17:10:32.965Z,17.30
2023-07-18T17:13:03.084Z,16.14
2023-07-18T17:15:33.002Z,15.60
2023-07-18T17:18:04.864Z,14.95
2023-07-18T17:20:37.266Z,14.72
2023-07-18T17:23:08.712Z,14.34
2023-07-18T17:25:39.204Z,13.99
2023-07-18T17:28:09.315Z,13.78
2023-07-18T17:30:40.457Z,13.62
2023-07-18T17:33:11.597Z,13.47
2023-07-18T17:35:42.400Z,13.52
2023-07-18T17:38:12.414Z,13.44
2023-07-18T17:40:42.961Z,13.58
2023-07-18T17:43:13.637Z,13.63
2023-07-18T17:45:43.960Z,13.54
2023-07-18T17:48:14.427Z,13.62
2023-07-18T17:50:45.094Z,13.76
2023-07-18T17:53:16.951Z,14.08
2023-07-18T17:55:48.372Z,14.51
2023-07-18T17:58:19.104Z,16.30
2023-07-18T18:00:48.986Z,15.02
2023-07-18T18:03:20.380Z,14.67
2023-07-18T18:05:52.695Z,14.67
2023-07-18T18:08:23.575Z,16.04
2023-07-18T18:10:54.247Z,18.69
2023-07-18T18:13:25.085Z,16.26
2023-07-18T18:16:07.368Z,16.01
2023-07-18T18:18:39.760Z,21.76
2023-07-18T18:21:12.015Z,23.33
2023-07-18T18:23:42.710Z,24.11
2023-07-18T18:26:13.294Z,21.78
2023-07-18T18:28:44.459Z,17.38
2023-07-18T18:31:15.433Z,15.71
2023-07-18T18:33:46.718Z,14.98
2023-07-18T18:36:18.208Z,14.37
2023-07-18T18:38:49.438Z,14.09
2023-07-18T18:41:19.855Z,16.83
2023-07-18T18:43:52.082Z,17.61
2023-07-18T18:46:23.864Z,15.02
2023-07-18T18:48:55.254Z,17.34
2023-07-18T18:51:26.076Z,18.51
2023-07-18T18:53:56.728Z,17.76
2023-07-18T18:56:27.389Z,16.79
2023-07-18T18:59:03.734Z,14.89
2023-07-18T19:01:34.379Z,13.89
2023-07-18T19:04:04.516Z,13.47
2023-07-18T19:06:37.040Z,13.25
2023-07-18T19:09:09.302Z,13.28
2023-07-18T19:11:39.849Z,13.37
2023-07-18T19:14:09.779Z,13.37
2023-07-18T19:16:41.269Z,13.30
2023-07-18T19:19:14.824Z,13.08
2023-07-18T19:21:46.172Z,12.92
2023-07-18T19:24:16.463Z,12.84
2023-07-18T19:26:46.468Z,12.73
2023-07-18T19:29:18.697Z,12.64
2023-07-18T19:31:50.018Z,12.60
2023-07-18T19:34:20.124Z,12.50
2023-07-18T19:36:51.167Z,12.49
2023-07-18T19:39:24.233Z,12.39
2023-07-18T19:41:56.731Z,12.28
2023-07-18T19:44:27.240Z,12.20
2023-07-18T19:46:58.487Z,12.05
2023-07-18T19:49:33.066Z,11.95
2023-07-18T19:52:06.171Z,11.99
2023-07-18T19:54:36.795Z,12.06
2023-07-18T19:57:07.269Z,12.08
2023-07-18T19:59:38.227Z,12.02
2023-07-18T20:02:09.887Z,11.84
2023-07-18T20:04:41.164Z,11.81
2023-07-18T20:07:12.483Z,11.73
2023-07-18T20:09:43.978Z,11.63
2023-07-18T20:12:15.418Z,11.50
2023-07-18T20:14:45.674Z,11.44
2023-07-18T20:17:15.305Z,11.32
2023-07-18T20:19:46.374Z,11.19
2023-07-18T20:22:18.658Z,11.09
2023-07-18T20:24:49.789Z,10.96
2023-07-18T20:27:20.617Z,10.85
2023-07-18T20:29:50.492Z,10.77
2023-07-18T20:32:21.533Z,10.77
2023-07-18T20:34:53.285Z,10.78
2023-07-18T20:37:23.373Z,10.77
2023-07-18T20:39:52.787Z,10.77
2023-07-18T20:42:25.245Z,10.77
2023-07-18T20:44:56.523Z,10.78
2023-07-18T20:47:27.612Z,10.75
2023-07-18T20:49:58.088Z,10.72
2023-07-18T20:52:28.574Z,10.69
2023-07-18T20:54:59.013Z,10.67
2023-07-18T20:57:30.258Z,10.61
2023-07-18T21:00:01.096Z,10.57
2023-07-18T21:02:31.657Z,10.48
2023-07-18T21:05:02.091Z,10.43
2023-07-18T21:07:33.476Z,10.33
2023-07-18T21:10:03.552Z,10.19
2023-07-18T21:12:33.540Z,10.10
2023-07-18T21:15:05.898Z,9.96
2023-07-18T21:17:36.662Z,9.86
2023-07-18T21:20:08.555Z,9.88
2023-07-18T21:22:38.812Z,9.74
2023-07-18T21:25:09.307Z,9.67
2023-07-18T21:27:40.062Z,9.59
2023-07-18T21:30:12.209Z,9.54
2023-07-18T21:32:43.132Z,9.51
2023-07-18T21:35:13.423Z,9.42
2023-07-18T21:37:43.340Z,9.35
2023-07-18T21:40:14.562Z,9.30
2023-07-18T21:42:48.071Z,9.24
2023-07-18T21:45:18.935Z,9.23
2023-07-18T21:47:49.082Z,9.19
2023-07-18T21:50:19.777Z,9.11
2023-07-18T21:52:50.642Z,9.10
2023-07-18T21:55:20.526Z,9.16
2023-07-18T21:57:50.562Z,9.10
2023-07-18T22:00:22.751Z,9.10
2023-07-18T22:02:54.495Z,9.07
2023-07-18T22:05:25.169Z,9.06
2023-07-18T22:07:55.466Z,9.06
2023-07-18T22:10:25.382Z,9.06
2023-07-18T22:12:56.966Z,8.97
2023-07-18T22:15:28.712Z,8.96
2023-07-18T22:18:08.930Z,8.99
2023-07-18T22:20:46.678Z,8.89
2023-07-18T22:23:17.107Z,8.91
2023-07-18T22:25:59.600Z,8.97
2023-07-18T22:28:34.525Z,8.96
2023-07-18T22:31:04.973Z,8.97
2023-07-18T22:33:35.884Z,8.93
2023-07-18T22:36:07.119Z,8.90
2023-07-18T22:38:37.667Z,8.84
2023-07-18T22:41:07.204Z,8.84
2023-07-18T22:43:39.206Z,8.69
2023-07-18T22:46:10.945Z,8.70
2023-07-18T22:48:41.795Z,8.69
2023-07-18T22:51:11.696Z,8.65
2023-07-18T22:53:41.852Z,8.58
2023-07-18T22:56:14.940Z,8.55
2023-07-18T22:58:46.292Z,8.61
2023-07-18T23:01:17.135Z,8.53
2023-07-18T23:03:48.212Z,8.58
2023-07-18T23:06:18.481Z,8.58
2023-07-18T23:08:49.432Z,8.49
2023-07-18T23:11:20.371Z,8.42
2023-07-18T23:13:50.978Z,8.46
2023-07-18T23:16:20.908Z,8.46
2023-07-18T23:18:52.165Z,8.45
2023-07-18T23:21:23.708Z,8.45
2023-07-18T23:23:54.230Z,8.46
2023-07-18T23:26:23.838Z,8.49
2023-07-18T23:28:53.977Z,8.49
2023-07-18T23:31:24.600Z,8.46
2023-07-18T23:33:55.735Z,8.42
2023-07-18T23:36:25.658Z,8.42
2023-07-18T23:38:56.502Z,8.35
2023-07-18T23:41:27.053Z,8.35
2023-07-18T23:43:59.148Z,8.35
2023-07-18T23:46:29.306Z,8.38
2023-07-18T23:48:59.329Z,8.42
2023-07-18T23:51:30.264Z,8.45
2023-07-18T23:54:01.629Z,8.49
2023-07-18T23:56:31.939Z,8.44
2023-07-18T23:59:01.798Z,8.42
